createdAt,value
2018-02-16T00:02:24.066Z,14.77
2018-02-16T00:04:52.292Z,15.27
2018-02-16T00:07:19.836Z,14.60
2018-02-16T00:09:48.190Z,13.48
2018-02-16T00:12:15.765Z,13.30
2018-02-16T00:14:44.089Z,14.05
2018-02-16T00:17:11.649Z,13.32
2018-02-16T00:19:39.203Z,12.65
2018-02-16T00:22:06.777Z,12.13
2018-02-16T00:24:34.346Z,12.32
2018-02-16T00:27:01.902Z,11.60
2018-02-16T00:29:29.523Z,12.65
2018-02-16T00:31:57.074Z,11.63
2018-02-16T00:34:25.406Z,11.07
2018-02-16T00:36:52.946Z,12.15
2018-02-16T00:39:20.543Z,10.95
2018-02-16T00:41:48.172Z,11.00
2018-02-16T00:44:15.733Z,12.43
2018-02-16T00:46:43.289Z,10.57
2018-02-16T00:49:10.856Z,10.45
2018-02-16T00:51:38.413Z,11.18
2018-02-16T00:54:06.005Z,10.80
2018-02-16T00:56:33.543Z,10.27
2018-02-16T00:59:01.110Z,11.05
2018-02-16T01:01:28.673Z,10.23
2018-02-16T01:03:56.245Z,9.43
2018-02-16T01:06:23.787Z,10.02
2018-02-16T01:08:51.361Z,10.13
2018-02-16T01:11:18.914Z,8.90
2018-02-16T01:13:46.524Z,8.50
2018-02-16T01:16:14.840Z,7.62
2018-02-16T01:18:42.418Z,7.82
2018-02-16T01:21:09.974Z,7.47
2018-02-16T01:23:37.520Z,6.70
2018-02-16T01:26:05.083Z,7.10
2018-02-16T01:28:32.632Z,5.93
2018-02-16T01:31:00.193Z,6.30
2018-02-16T01:33:27.725Z,5.43
2018-02-16T01:35:55.308Z,5.62
2018-02-16T01:38:22.851Z,5.80
2018-02-16T01:40:50.412Z,5.60
2018-02-16T01:43:17.976Z,5.25
2018-02-16T01:45:45.546Z,5.10
2018-02-16T01:48:13.115Z,5.47
2018-02-16T01:50:40.753Z,4.95
2018-02-16T01:53:08.304Z,4.28
2018-02-16T01:55:35.893Z,4.50
2018-02-16T01:58:04.293Z,4.75
2018-02-16T02:00:31.845Z,3.97
2018-02-16T02:02:59.397Z,4.43
2018-02-16T02:05:26.953Z,4.28
2018-02-16T02:07:54.708Z,4.30
2018-02-16T02:10:22.252Z,4.20
2018-02-16T02:12:49.815Z,4.82
2018-02-16T02:15:17.414Z,4.55
2018-02-16T02:17:44.962Z,4.95
2018-02-16T02:20:12.625Z,4.15
2018-02-16T02:22:40.191Z,3.92
2018-02-16T02:25:07.729Z,4.03
2018-02-16T02:27:35.298Z,3.17
2018-02-16T02:30:02.824Z,3.33
2018-02-16T02:32:30.412Z,2.65
2018-02-16T02:34:57.952Z,2.70
2018-02-16T02:37:25.512Z,2.92
2018-02-16T02:39:53.048Z,2.87
2018-02-16T02:42:21.382Z,3.50
2018-02-16T02:44:48.924Z,3.60
2018-02-16T02:47:16.481Z,3.58
2018-02-16T02:49:44.154Z,3.15
2018-02-16T02:52:11.700Z,2.50
2018-02-16T02:54:39.241Z,2.30
2018-02-16T02:57:07.560Z,1.85
2018-02-16T02:59:35.116Z,2.15
2018-02-16T03:02:02.645Z,1.77
2018-02-16T03:04:30.193Z,2.20
2018-02-16T03:06:58.510Z,2.03
2018-02-16T03:09:26.075Z,2.20
2018-02-16T03:11:53.629Z,2.55
2018-02-16T03:14:21.192Z,2.00
2018-02-16T03:16:48.740Z,1.60
2018-02-16T03:19:16.305Z,1.80
2018-02-16T03:21:43.869Z,1.80
2018-02-16T03:24:11.402Z,1.65
2018-02-16T03:26:38.962Z,1.62
2018-02-16T03:29:07.254Z,1.77
2018-02-16T03:31:34.804Z,1.30
2018-02-16T03:34:02.357Z,1.50
2018-02-16T03:36:30.680Z,1.58
2018-02-16T03:38:58.229Z,1.65
2018-02-16T03:41:25.782Z,1.52
2018-02-16T03:43:53.320Z,1.95
2018-02-16T03:46:20.865Z,1.83
2018-02-16T03:48:49.221Z,1.95
2018-02-16T03:51:16.777Z,2.28
2018-02-16T03:53:44.337Z,3.08
2018-02-16T03:56:11.888Z,1.65
2018-02-16T03:58:39.461Z,2.03
2018-02-16T04:01:08.528Z,2.25
2018-02-16T04:03:36.099Z,2.37
2018-02-16T04:06:03.628Z,3.50
2018-02-16T04:08:31.209Z,3.25
2018-02-16T04:10:58.741Z,2.67
2018-02-16T04:13:26.297Z,2.00
2018-02-16T04:15:53.870Z,2.87
2018-02-16T04:18:21.409Z,2.20
2018-02-16T04:20:48.979Z,2.20
2018-02-16T04:23:16.535Z,2.10
2018-02-16T04:25:44.097Z,2.05
2018-02-16T04:28:11.672Z,2.10
2018-02-16T04:30:39.203Z,2.10
2018-02-16T04:33:07.520Z,2.03
2018-02-16T04:35:35.048Z,2.10
2018-02-16T04:38:02.618Z,2.30
2018-02-16T04:40:30.165Z,2.42
2018-02-16T04:42:57.724Z,2.10
2018-02-16T04:45:25.324Z,2.00
2018-02-16T04:47:52.834Z,1.90
2018-02-16T04:50:21.183Z,1.98
2018-02-16T04:52:48.767Z,1.85
2018-02-16T04:55:17.065Z,2.55
2018-02-16T04:57:44.669Z,2.85
2018-02-16T05:00:12.219Z,2.10
2018-02-16T05:02:39.800Z,2.35
2018-02-16T05:05:07.371Z,2.20
2018-02-16T05:07:34.914Z,1.98
2018-02-16T05:10:02.484Z,1.90
2018-02-16T05:12:30.084Z,1.70
2018-02-16T05:14:58.400Z,2.10
2018-02-16T05:17:25.941Z,1.70
2018-02-16T05:19:53.536Z,1.40
2018-02-16T05:22:21.090Z,2.17
2018-02-16T05:24:48.644Z,1.90
2018-02-16T05:27:16.351Z,1.50
2018-02-16T05:29:44.674Z,1.50
2018-02-16T05:32:12.240Z,1.73
2018-02-16T05:34:39.783Z,2.22
2018-02-16T05:37:07.448Z,1.52
2018-02-16T05:39:34.981Z,2.00
2018-02-16T05:42:03.306Z,1.90
2018-02-16T05:44:30.855Z,1.98
2018-02-16T05:46:58.445Z,1.90
2018-02-16T05:49:26.004Z,2.40
2018-02-16T05:51:53.552Z,2.47
2018-02-16T05:54:21.104Z,1.70
2018-02-16T05:56:48.659Z,2.80
2018-02-16T05:59:16.213Z,1.80
2018-02-16T06:01:43.777Z,2.03
2018-02-16T06:04:11.352Z,2.30
2018-02-16T06:06:38.915Z,2.42
2018-02-16T06:09:06.459Z,3.03
2018-02-16T06:11:34.020Z,2.55
2018-02-16T06:14:01.609Z,2.33
2018-02-16T06:16:29.156Z,2.40
2018-02-16T06:18:56.709Z,2.58
2018-02-16T06:21:25.133Z,2.20
2018-02-16T06:23:53.500Z,2.58
2018-02-16T06:26:21.077Z,2.45
2018-02-16T06:28:48.634Z,3.03
2018-02-16T06:31:18.076Z,3.50
2018-02-16T06:33:45.666Z,3.87
2018-02-16T06:36:13.245Z,4.70
2018-02-16T06:38:41.578Z,3.75
2018-02-16T06:41:09.140Z,3.80
2018-02-16T06:43:36.719Z,3.70
2018-02-16T06:46:04.273Z,3.40
2018-02-16T06:48:31.822Z,3.60
2018-02-16T06:50:59.467Z,3.00
2018-02-16T06:53:27.000Z,3.20
2018-02-16T06:55:55.337Z,3.58
2018-02-16T06:58:22.884Z,4.05
2018-02-16T07:00:50.435Z,4.47
2018-02-16T07:03:17.982Z,3.95
2018-02-16T07:05:45.524Z,5.05
2018-02-16T07:08:13.088Z,4.37
2018-02-16T07:10:40.650Z,4.15
2018-02-16T07:13:08.218Z,3.45
2018-02-16T07:15:35.776Z,3.65
2018-02-16T07:18:03.343Z,3.97
2018-02-16T07:20:30.884Z,3.70
2018-02-16T07:22:58.469Z,4.82
2018-02-16T07:25:26.048Z,3.60
2018-02-16T07:27:53.608Z,3.95
2018-02-16T07:30:21.149Z,4.22
2018-02-16T07:32:48.705Z,4.10
2018-02-16T07:35:16.245Z,4.25
2018-02-16T07:37:43.836Z,4.75
2018-02-16T07:40:11.391Z,4.82
2018-02-16T07:42:38.972Z,4.85
2018-02-16T07:45:06.529Z,4.10
2018-02-16T07:47:34.062Z,4.75
2018-02-16T07:50:01.634Z,5.80
2018-02-16T07:52:29.161Z,5.18
2018-02-16T07:54:56.746Z,5.70
2018-02-16T07:57:24.281Z,6.25
2018-02-16T07:59:52.606Z,7.32
2018-02-16T08:02:20.147Z,5.80
2018-02-16T08:04:47.714Z,5.50
2018-02-16T08:07:15.261Z,5.68
2018-02-16T08:09:42.843Z,6.10
2018-02-16T08:12:10.393Z,5.37
2018-02-16T08:14:38.128Z,6.50
2018-02-16T08:17:05.677Z,4.53
2018-02-16T08:19:33.988Z,4.87
2018-02-16T08:22:01.555Z,4.47
2018-02-16T08:24:29.103Z,4.60
2018-02-16T08:26:56.727Z,4.72
2018-02-16T08:29:25.040Z,4.65
2018-02-16T08:31:52.617Z,4.35
2018-02-16T08:34:20.144Z,4.32
2018-02-16T08:36:48.528Z,3.75
2018-02-16T08:39:16.095Z,3.70
2018-02-16T08:41:43.864Z,2.75
2018-02-16T08:44:11.424Z,2.80
2018-02-16T08:46:38.999Z,3.37
2018-02-16T08:49:06.534Z,4.07
2018-02-16T08:51:34.107Z,3.05
2018-02-16T08:54:02.007Z,3.55
2018-02-16T08:56:29.551Z,3.55
2018-02-16T08:58:57.109Z,3.47
2018-02-16T09:01:24.668Z,2.85
2018-02-16T09:03:52.197Z,2.97
2018-02-16T09:06:19.768Z,3.28
2018-02-16T09:08:47.354Z,3.50
2018-02-16T09:11:14.915Z,2.72
2018-02-16T09:13:42.476Z,2.90
2018-02-16T09:16:10.028Z,3.35
2018-02-16T09:18:37.563Z,2.00
2018-02-16T09:21:05.152Z,1.80
2018-02-16T09:23:32.738Z,1.67
2018-02-16T09:26:00.304Z,2.10
2018-02-16T09:28:28.641Z,1.35
2018-02-16T09:30:56.198Z,1.40
2018-02-16T09:33:23.762Z,1.30
2018-02-16T09:35:51.700Z,1.20
2018-02-16T09:38:19.263Z,1.50
2018-02-16T09:40:47.085Z,1.20
2018-02-16T09:43:14.680Z,1.60
2018-02-16T09:45:42.216Z,1.60
2018-02-16T09:48:10.560Z,1.60
2018-02-16T09:50:38.103Z,1.75
2018-02-16T09:53:05.667Z,1.73
2018-02-16T09:55:33.258Z,1.60
2018-02-16T09:58:00.825Z,2.00
2018-02-16T10:00:28.400Z,3.40
2018-02-16T10:02:56.731Z,1.92
2018-02-16T10:05:24.345Z,1.87
2018-02-16T10:07:52.660Z,2.10
2018-02-16T10:10:20.232Z,1.30
2018-02-16T10:12:47.844Z,1.30
2018-02-16T10:15:16.156Z,1.30
2018-02-16T10:17:43.731Z,1.35
2018-02-16T10:20:11.262Z,1.48
2018-02-16T10:22:38.821Z,1.33
2018-02-16T10:25:07.135Z,1.45
2018-02-16T10:27:34.709Z,1.73
2018-02-16T10:30:02.258Z,1.60
2018-02-16T10:32:29.898Z,1.40
2018-02-16T10:34:57.433Z,3.55
2018-02-16T10:37:25.740Z,1.80
2018-02-16T10:39:53.298Z,1.40
2018-02-16T10:42:20.856Z,1.90
2018-02-16T10:44:48.409Z,1.60
2018-02-16T10:47:15.949Z,1.67
2018-02-16T10:49:44.329Z,1.70
2018-02-16T10:52:12.637Z,2.30
2018-02-16T10:54:40.216Z,1.30
2018-02-16T10:57:07.763Z,1.20
2018-02-16T10:59:35.330Z,1.58
2018-02-16T11:02:08.568Z,1.10
2018-02-16T11:04:42.612Z,1.10
2018-02-16T11:07:15.741Z,1.55
2018-02-16T11:09:43.320Z,1.33
2018-02-16T11:12:11.668Z,1.42
2018-02-16T11:14:39.232Z,1.20
2018-02-16T11:17:07.574Z,1.15
2018-02-16T11:19:35.122Z,1.10
2018-02-16T11:22:02.706Z,1.30
2018-02-16T11:24:30.245Z,1.83
2018-02-16T11:26:57.814Z,1.40
2018-02-16T11:29:25.352Z,1.20
2018-02-16T11:31:53.703Z,1.48
2018-02-16T11:34:21.259Z,1.42
2018-02-16T11:36:48.883Z,1.65
2018-02-16T11:39:16.456Z,1.62
2018-02-16T11:41:44.018Z,1.35
2018-02-16T11:44:11.617Z,1.70
2018-02-16T11:46:39.953Z,1.80
2018-02-16T11:49:07.506Z,1.98
2018-02-16T11:51:35.109Z,1.50
2018-02-16T11:54:02.644Z,1.60
2018-02-16T11:56:30.209Z,1.73
2018-02-16T11:58:57.800Z,1.83
2018-02-16T12:01:25.383Z,1.67
2018-02-16T12:03:52.933Z,1.33
2018-02-16T12:06:21.280Z,1.57
2018-02-16T12:08:50.376Z,1.40
2018-02-16T12:11:17.948Z,1.53
2018-02-16T12:13:45.500Z,1.40
2018-02-16T12:16:13.049Z,1.57
2018-02-16T12:18:40.623Z,1.40
2018-02-16T12:21:08.168Z,1.30
2018-02-16T12:23:35.753Z,1.30
2018-02-16T12:26:04.101Z,1.70
2018-02-16T12:28:31.659Z,1.50
2018-02-16T12:30:59.220Z,1.73
2018-02-16T12:33:26.831Z,1.43
2018-02-16T12:35:54.385Z,1.40
2018-02-16T12:38:22.718Z,1.87
2018-02-16T12:40:50.270Z,1.47
2018-02-16T12:43:17.873Z,1.50
2018-02-16T12:45:46.298Z,1.40
2018-02-16T12:48:13.880Z,1.30
2018-02-16T12:50:41.448Z,1.10
2018-02-16T12:53:09.026Z,1.20
2018-02-16T12:55:37.358Z,1.30
2018-02-16T12:58:04.953Z,1.40
2018-02-16T13:00:32.516Z,1.60
2018-02-16T13:03:00.069Z,1.40
2018-02-16T13:05:27.632Z,1.90
2018-02-16T13:07:55.175Z,2.47
2018-02-16T13:10:22.746Z,2.92
2018-02-16T13:12:50.308Z,3.40
2018-02-16T13:15:17.872Z,3.08
2018-02-16T13:17:45.424Z,2.72
2018-02-16T13:20:13.018Z,3.10
2018-02-16T13:22:41.334Z,3.70
2018-02-16T13:25:08.899Z,3.12
2018-02-16T13:27:36.453Z,3.35
2018-02-16T13:30:04.098Z,3.70
2018-02-16T13:32:31.679Z,3.83
2018-02-16T13:34:59.240Z,2.83
2018-02-16T13:37:26.819Z,4.32
2018-02-16T13:39:54.360Z,2.55
2018-02-16T13:42:21.932Z,4.03
2018-02-16T13:44:49.497Z,3.53
2018-02-16T13:47:17.067Z,4.93
2018-02-16T13:49:44.619Z,3.62
2018-02-16T13:52:12.199Z,4.55
2018-02-16T13:54:39.733Z,4.32
2018-02-16T13:57:07.317Z,3.75
2018-02-16T13:59:34.876Z,3.85
2018-02-16T14:02:02.415Z,3.90
2018-02-16T14:04:29.976Z,3.83
2018-02-16T14:06:57.515Z,4.15
2018-02-16T14:09:25.099Z,3.80
2018-02-16T14:11:52.648Z,2.80
2018-02-16T14:14:20.196Z,3.45
2018-02-16T14:16:47.919Z,2.85
2018-02-16T14:19:16.574Z,2.75
2018-02-16T14:21:44.260Z,2.92
2018-02-16T14:24:13.366Z,3.40
2018-02-16T14:26:41.313Z,4.00
2018-02-16T14:29:09.661Z,2.85
2018-02-16T14:31:37.445Z,3.03
2018-02-16T14:34:04.992Z,2.80
2018-02-16T14:36:32.575Z,2.75
2018-02-16T14:39:00.116Z,3.12
2018-02-16T14:41:27.689Z,3.60
2018-02-16T14:43:56.016Z,3.58
2018-02-16T14:46:23.581Z,3.40
2018-02-16T14:48:51.165Z,2.10
2018-02-16T14:51:18.714Z,2.85
2018-02-16T14:53:46.298Z,2.75
2018-02-16T14:56:13.845Z,2.40
2018-02-16T14:58:41.394Z,2.85
2018-02-16T15:01:08.974Z,3.50
2018-02-16T15:03:36.520Z,3.87
2018-02-16T15:06:04.077Z,3.30
2018-02-16T15:08:31.654Z,3.08
2018-02-16T15:10:59.240Z,2.75
2018-02-16T15:13:26.840Z,3.17
2018-02-16T15:15:55.158Z,3.50
2018-02-16T15:18:22.716Z,4.62
2018-02-16T15:20:50.276Z,3.20
2018-02-16T15:23:17.855Z,3.55
2018-02-16T15:25:45.448Z,3.05
2018-02-16T15:28:13.779Z,3.72
2018-02-16T15:30:41.616Z,3.45
2018-02-16T15:33:09.180Z,3.20
2018-02-16T15:35:36.764Z,3.15
2018-02-16T15:38:04.307Z,3.10
2018-02-16T15:40:31.846Z,3.53
2018-02-16T15:42:59.422Z,3.70
2018-02-16T15:45:26.982Z,4.20
2018-02-16T15:47:54.575Z,5.32
2018-02-16T15:50:22.151Z,4.05
2018-02-16T15:52:49.701Z,3.75
2018-02-16T15:55:17.264Z,3.60
2018-02-16T15:57:44.850Z,3.22
2018-02-16T16:00:13.179Z,3.83
2018-02-16T16:02:40.760Z,3.65
2018-02-16T16:05:08.312Z,4.35
2018-02-16T16:07:35.886Z,4.05
2018-02-16T16:10:03.436Z,4.10
2018-02-16T16:12:30.989Z,4.55
2018-02-16T16:14:58.555Z,3.90
2018-02-16T16:17:26.251Z,4.60
2018-02-16T16:19:54.584Z,5.53
2018-02-16T16:22:22.136Z,5.82
2018-02-16T16:24:49.706Z,4.65
2018-02-16T16:27:17.284Z,5.22
2018-02-16T16:29:44.862Z,5.45
2018-02-16T16:32:13.189Z,5.40
2018-02-16T16:34:40.759Z,5.40
2018-02-16T16:37:08.299Z,4.65
2018-02-16T16:39:35.883Z,5.68
2018-02-16T16:42:03.463Z,5.85
2018-02-16T16:44:31.030Z,7.55
2018-02-16T16:46:58.572Z,6.75
2018-02-16T16:49:26.121Z,5.40
2018-02-16T16:51:53.688Z,5.85
2018-02-16T16:54:21.259Z,5.35
2018-02-16T16:56:48.819Z,5.10
2018-02-16T16:59:16.363Z,5.57
2018-02-16T17:01:43.945Z,5.72
2018-02-16T17:04:11.509Z,7.30
2018-02-16T17:06:39.071Z,7.47
2018-02-16T17:09:07.507Z,6.95
2018-02-16T17:11:35.073Z,6.93
2018-02-16T17:14:02.664Z,7.93
2018-02-16T17:16:30.212Z,6.70
2018-02-16T17:18:57.788Z,6.87
2018-02-16T17:21:25.346Z,6.32
2018-02-16T17:23:52.935Z,8.43
2018-02-16T17:26:21.270Z,6.57
2018-02-16T17:28:48.837Z,7.07
2018-02-16T17:31:16.408Z,7.53
2018-02-16T17:33:43.975Z,7.28
2018-02-16T17:36:11.549Z,8.85
2018-02-16T17:38:39.874Z,8.02
2018-02-16T17:41:07.701Z,8.00
2018-02-16T17:43:36.063Z,8.57
2018-02-16T17:46:04.424Z,9.02
2018-02-16T17:48:31.974Z,7.22
2018-02-16T17:50:59.554Z,9.13
2018-02-16T17:53:27.129Z,8.82
2018-02-16T17:55:55.444Z,9.98
2018-02-16T17:58:23.019Z,9.40
2018-02-16T18:00:50.606Z,9.05
2018-02-16T18:03:18.160Z,8.70
2018-02-16T18:05:46.526Z,11.07
2018-02-16T18:08:14.080Z,10.57
2018-02-16T18:10:41.638Z,11.85
2018-02-16T18:13:09.219Z,15.52
2018-02-16T18:15:37.566Z,14.57
2018-02-16T18:18:05.135Z,12.45
2018-02-16T18:20:32.699Z,11.40
2018-02-16T18:23:00.284Z,9.80
2018-02-16T18:25:28.727Z,10.23
2018-02-16T18:27:56.296Z,12.60
2018-02-16T18:30:23.878Z,10.88
2018-02-16T18:32:51.450Z,8.15
2018-02-16T18:35:19.004Z,8.45
2018-02-16T18:37:48.606Z,8.23
2018-02-16T18:40:16.187Z,8.77
2018-02-16T18:42:44.562Z,9.45
2018-02-16T18:45:12.092Z,7.93
2018-02-16T18:47:40.424Z,8.80
2018-02-16T18:50:07.991Z,8.32
2018-02-16T18:52:35.564Z,7.37
2018-02-16T18:55:03.127Z,6.85
2018-02-16T18:57:30.705Z,5.85
2018-02-16T18:59:58.255Z,7.62
2018-02-16T19:02:25.841Z,7.18
2018-02-16T19:04:53.413Z,7.25
2018-02-16T19:07:20.973Z,7.22
2018-02-16T19:09:48.553Z,6.35
2018-02-16T19:12:16.883Z,7.40
2018-02-16T19:14:44.453Z,6.68
2018-02-16T19:17:12.035Z,6.32
2018-02-16T19:19:41.342Z,7.10
2018-02-16T19:22:09.687Z,5.65
2018-02-16T19:24:37.249Z,7.12
2018-02-16T19:27:04.793Z,6.05
2018-02-16T19:29:32.373Z,7.30
2018-02-16T19:31:59.936Z,9.88
2018-02-16T19:34:28.314Z,8.60
2018-02-16T19:36:55.907Z,9.40
2018-02-16T19:39:23.497Z,13.15
2018-02-16T19:41:52.800Z,11.88
2018-02-16T19:44:20.345Z,11.63
2018-02-16T19:46:47.916Z,13.80
2018-02-16T19:49:15.489Z,12.50
2018-02-16T19:51:43.033Z,13.65
2018-02-16T19:54:10.609Z,14.55
2018-02-16T19:56:38.170Z,15.20
2018-02-16T19:59:05.752Z,13.52
2018-02-16T20:01:33.340Z,13.57
2018-02-16T20:04:00.959Z,14.13
2018-02-16T20:06:28.618Z,12.90
2018-02-16T20:08:56.180Z,14.57
2018-02-16T20:11:23.748Z,13.27
2018-02-16T20:13:51.319Z,13.80
2018-02-16T20:16:18.889Z,12.68
2018-02-16T20:18:46.497Z,13.85
2018-02-16T20:21:14.057Z,14.60
2018-02-16T20:23:41.613Z,14.38
2018-02-16T20:26:09.230Z,13.90
2018-02-16T20:28:36.804Z,14.45
2018-02-16T20:31:04.412Z,13.88
2018-02-16T20:33:32.028Z,14.52
2018-02-16T20:36:00.364Z,16.87
2018-02-16T20:38:27.936Z,17.58
2018-02-16T20:40:55.562Z,16.67
2018-02-16T20:43:23.118Z,14.90
2018-02-16T20:45:50.713Z,15.60
2018-02-16T20:48:18.285Z,14.23
2018-02-16T20:50:45.862Z,16.00
2018-02-16T20:53:13.434Z,14.07
2018-02-16T20:55:41.817Z,15.88
2018-02-16T20:58:10.134Z,16.30
2018-02-16T21:00:37.691Z,15.35
2018-02-16T21:03:05.286Z,16.98
2018-02-16T21:05:32.847Z,15.82
2018-02-16T21:08:00.435Z,16.23
2018-02-16T21:10:28.872Z,16.15
2018-02-16T21:12:56.474Z,14.93
2018-02-16T21:15:24.867Z,14.73
2018-02-16T21:17:53.200Z,14.82
2018-02-16T21:20:20.793Z,19.40
2018-02-16T21:22:49.128Z,17.42
2018-02-16T21:25:17.049Z,16.73
2018-02-16T21:27:45.422Z,16.73
2018-02-16T21:30:13.746Z,17.15
2018-02-16T21:32:43.260Z,16.80
2018-02-16T21:35:10.830Z,15.75
2018-02-16T21:37:38.404Z,18.55
2018-02-16T21:40:06.753Z,19.12
2018-02-16T21:42:34.295Z,17.52
2018-02-16T21:45:01.860Z,17.80
2018-02-16T21:47:29.433Z,17.95
2018-02-16T21:49:57.036Z,17.00
2018-02-16T21:52:25.380Z,16.87
2018-02-16T21:54:52.972Z,19.08
2018-02-16T21:57:20.595Z,17.85
2018-02-16T21:59:48.163Z,17.40
2018-02-16T22:02:15.777Z,17.70
2018-02-16T22:04:44.182Z,17.05
2018-02-16T22:07:11.753Z,17.08
2018-02-16T22:09:39.325Z,16.77
2018-02-16T22:12:08.077Z,21.00
2018-02-16T22:14:35.675Z,19.52
2018-02-16T22:17:03.261Z,17.87
2018-02-16T22:19:31.634Z,19.58
2018-02-16T22:21:59.204Z,17.85
2018-02-16T22:24:26.904Z,19.35
2018-02-16T22:26:54.591Z,17.95
2018-02-16T22:29:22.173Z,19.77
2018-02-16T22:31:49.822Z,18.00
2018-02-16T22:34:17.410Z,18.40
2018-02-16T22:36:45.010Z,16.83
2018-02-16T22:39:12.583Z,19.15
2018-02-16T22:41:40.146Z,20.80
2018-02-16T22:44:07.911Z,21.33
2018-02-16T22:46:35.492Z,22.45
2018-02-16T22:49:03.049Z,25.73
2018-02-16T22:51:30.620Z,24.48
2018-02-16T22:53:58.180Z,25.10
2018-02-16T22:56:25.761Z,24.55
2018-02-16T22:58:54.107Z,22.45
2018-02-16T23:01:21.680Z,26.05
2018-02-16T23:03:49.233Z,25.62
2018-02-16T23:06:16.837Z,27.48
2018-02-16T23:08:45.164Z,22.67
2018-02-16T23:11:12.724Z,23.73
2018-02-16T23:13:40.298Z,24.17
2018-02-16T23:16:07.880Z,25.90
2018-02-16T23:18:35.441Z,24.85
2018-02-16T23:21:02.999Z,24.45
2018-02-16T23:23:30.625Z,25.12
2018-02-16T23:25:58.170Z,28.35
2018-02-16T23:28:25.727Z,27.50
2018-02-16T23:30:53.275Z,29.60
2018-02-16T23:33:20.849Z,33.28
2018-02-16T23:35:48.429Z,25.85
2018-02-16T23:38:16.002Z,24.75
2018-02-16T23:40:43.570Z,24.20
2018-02-16T23:43:11.078Z,25.27
2018-02-16T23:45:38.668Z,25.30
2018-02-16T23:48:06.987Z,23.90
2018-02-16T23:50:34.560Z,24.42
2018-02-16T23:53:02.129Z,22.85
2018-02-16T23:55:29.712Z,23.02
2018-02-16T23:57:57.278Z,21.92
